Ripley, Ohio
Current Conditions -  °F | °C
As of 4:35 PM on Friday 31 Oct 2014 (Local Time) from KFGX Reporting Station
Light Rain Light Rain  
Wind Chill: 32°   Ceiling: 1200
Heat Index: 39°   Visibility: 10mi
Dew Point: 37°   Wind: 13mph
Humidity: 93%   Direction: 320°NW
Pressure: 29.91"   Gusts: 23mph
Location:  38.75°N, 83.84°W
Report Text: KFGX 312035Z AUTO 32011G20KT 10SM -RA BKN012 OVC022 04/03 A2991 RMK AO2 T00400029
Loading
Personal Weather Stations






























Interactive Weather Map
Tropical Storm Tracking
New forecast layout! Learn more

10-Day Weather Forecast

Advertisements
Track Severe Weather on mobile